createdAt,value
2022-11-26T00:00:56.969Z,2.50
2022-11-26T00:03:24.988Z,2.70
2022-11-26T00:05:56.945Z,2.47
2022-11-26T00:08:30.779Z,2.65
2022-11-26T00:11:00.575Z,2.45
2022-11-26T00:13:31.292Z,2.45
2022-11-26T00:15:59.305Z,2.40
2022-11-26T00:18:27.374Z,2.63
2022-11-26T00:21:00.847Z,2.13
2022-11-26T00:23:29.830Z,2.53
2022-11-26T00:26:03.299Z,2.38
2022-11-26T00:28:32.634Z,2.70
2022-11-26T00:31:02.181Z,2.10
2022-11-26T00:33:31.549Z,1.75
2022-11-26T00:36:05.450Z,2.00
2022-11-26T00:38:33.549Z,2.30
2022-11-26T00:41:02.863Z,2.00
2022-11-26T00:43:30.717Z,1.90
2022-11-26T00:45:58.787Z,1.80
2022-11-26T00:48:26.838Z,1.80
2022-11-26T00:50:54.860Z,1.83
2022-11-26T00:53:26.921Z,2.20
2022-11-26T00:55:54.886Z,2.00
2022-11-26T00:58:27.449Z,2.00
2022-11-26T01:00:56.876Z,1.60
2022-11-26T01:03:25.582Z,1.77
2022-11-26T01:05:55.752Z,1.98
2022-11-26T01:08:31.835Z,2.08
2022-11-26T01:11:00.009Z,2.03
2022-11-26T01:13:30.007Z,1.67
2022-11-26T01:15:59.649Z,1.80
2022-11-26T01:18:28.121Z,1.92
2022-11-26T01:20:55.949Z,1.80
2022-11-26T01:23:23.786Z,2.20
2022-11-26T01:25:51.678Z,1.77
2022-11-26T01:28:20.663Z,1.92
2022-11-26T01:30:49.893Z,2.20
2022-11-26T01:33:17.752Z,1.95
2022-11-26T01:35:45.755Z,1.80
2022-11-26T01:38:15.593Z,1.75
2022-11-26T01:41:04.275Z,1.80
2022-11-26T01:43:37.429Z,1.80
2022-11-26T01:46:15.242Z,1.48
2022-11-26T01:48:43.509Z,1.75
2022-11-26T01:51:12.391Z,1.75
2022-11-26T01:53:52.814Z,2.25
2022-11-26T01:56:32.888Z,2.03
2022-11-26T01:59:06.552Z,1.85
2022-11-26T02:01:36.454Z,1.92
2022-11-26T02:04:13.198Z,1.63
2022-11-26T02:06:43.753Z,1.83
2022-11-26T02:09:13.029Z,1.90
2022-11-26T02:11:41.484Z,1.70
2022-11-26T02:14:15.118Z,1.77
2022-11-26T02:16:58.641Z,1.67
2022-11-26T02:20:01.874Z,1.50
2022-11-26T02:22:58.818Z,1.50
2022-11-26T02:25:38.439Z,1.83
2022-11-26T02:28:27.380Z,1.80
2022-11-26T02:31:04.139Z,1.60
2022-11-26T02:33:41.497Z,1.88
2022-11-26T02:36:16.122Z,1.63
2022-11-26T02:38:44.058Z,1.77
2022-11-26T02:41:11.947Z,1.77
2022-11-26T02:43:40.593Z,1.80
2022-11-26T02:46:13.762Z,1.70
2022-11-26T02:48:46.006Z,1.60
2022-11-26T02:51:19.095Z,1.80
2022-11-26T02:53:50.011Z,1.70
2022-11-26T02:56:21.649Z,1.88
2022-11-26T02:58:50.476Z,2.20
2022-11-26T03:01:29.153Z,1.60
2022-11-26T03:04:00.334Z,1.60
2022-11-26T03:06:32.690Z,1.73
2022-11-26T03:09:00.667Z,1.80
2022-11-26T03:11:29.072Z,2.00
2022-11-26T03:13:57.110Z,1.70
2022-11-26T03:16:26.439Z,1.90
2022-11-26T03:18:54.520Z,1.88
2022-11-26T03:21:22.514Z,1.52
2022-11-26T03:23:50.386Z,2.00
2022-11-26T03:26:18.439Z,2.22
2022-11-26T03:28:46.280Z,2.70
2022-11-26T03:31:14.224Z,2.38
2022-11-26T03:33:43.529Z,2.38
2022-11-26T03:36:11.553Z,2.72
2022-11-26T03:38:39.408Z,1.77
2022-11-26T03:41:07.246Z,2.33
2022-11-26T03:43:35.097Z,2.05
2022-11-26T03:46:02.984Z,3.03
2022-11-26T03:48:30.866Z,2.92
2022-11-26T03:51:00.085Z,2.58
2022-11-26T03:53:28.399Z,2.40
2022-11-26T03:55:56.234Z,2.40
2022-11-26T03:58:24.075Z,2.45
2022-11-26T04:00:51.969Z,2.47
2022-11-26T04:03:19.915Z,2.63
2022-11-26T04:05:47.905Z,2.53
2022-11-26T04:08:17.136Z,2.30
2022-11-26T04:10:45.058Z,2.25
2022-11-26T04:13:12.869Z,2.10
2022-11-26T04:15:40.740Z,2.40
2022-11-26T04:18:08.651Z,2.10
2022-11-26T04:20:36.633Z,1.90
2022-11-26T04:23:04.598Z,2.22
2022-11-26T04:25:33.944Z,2.65
2022-11-26T04:28:02.054Z,2.63
2022-11-26T04:30:30.154Z,2.58
2022-11-26T04:32:58.057Z,2.60
2022-11-26T04:35:25.883Z,2.88
2022-11-26T04:37:53.723Z,3.63
2022-11-26T04:40:21.830Z,3.25
2022-11-26T04:42:51.049Z,3.70
2022-11-26T04:45:19.083Z,3.70
2022-11-26T04:47:46.947Z,3.97
2022-11-26T04:50:14.860Z,3.90
2022-11-26T04:52:42.711Z,4.85
2022-11-26T04:55:11.018Z,4.38
2022-11-26T04:57:38.969Z,5.35
2022-11-26T05:00:14.815Z,5.78
2022-11-26T05:02:42.805Z,5.90
2022-11-26T05:05:10.718Z,5.75
2022-11-26T05:07:39.088Z,5.15
2022-11-26T05:10:08.603Z,5.90
2022-11-26T05:12:36.561Z,5.43
2022-11-26T05:15:05.042Z,6.10
2022-11-26T05:17:34.608Z,5.72
2022-11-26T05:20:02.538Z,5.72
2022-11-26T05:22:30.396Z,5.35
2022-11-26T05:24:58.243Z,5.82
2022-11-26T05:27:26.162Z,5.75
2022-11-26T05:29:54.033Z,4.90
2022-11-26T05:32:22.010Z,5.53
2022-11-26T05:34:53.419Z,6.00
2022-11-26T05:37:24.965Z,5.40
2022-11-26T05:39:52.805Z,5.00
2022-11-26T05:42:20.749Z,4.93
2022-11-26T05:44:48.582Z,4.97
2022-11-26T05:47:16.585Z,4.72
2022-11-26T05:49:44.429Z,4.70
2022-11-26T05:52:13.697Z,4.97
2022-11-26T05:54:41.775Z,4.65
2022-11-26T05:57:10.770Z,4.80
2022-11-26T05:59:38.615Z,4.60
2022-11-26T06:02:06.722Z,4.15
2022-11-26T06:04:34.739Z,4.70
2022-11-26T06:07:02.678Z,4.68
2022-11-26T06:09:31.894Z,4.35
2022-11-26T06:11:59.835Z,4.18
2022-11-26T06:14:27.717Z,4.68
2022-11-26T06:16:55.710Z,4.38
2022-11-26T06:19:23.581Z,3.67
2022-11-26T06:21:51.478Z,3.75
2022-11-26T06:24:19.337Z,4.20
2022-11-26T06:26:48.659Z,3.78
2022-11-26T06:29:17.625Z,3.95
2022-11-26T06:31:45.617Z,3.85
2022-11-26T06:34:13.510Z,3.70
2022-11-26T06:36:41.386Z,4.05
2022-11-26T06:39:10.739Z,3.78
2022-11-26T06:41:39.174Z,3.65
2022-11-26T06:44:08.525Z,3.17
2022-11-26T06:46:37.029Z,3.55
2022-11-26T06:49:05.890Z,3.50
2022-11-26T06:51:34.235Z,2.92
2022-11-26T06:54:02.878Z,3.00
2022-11-26T06:56:30.730Z,3.35
2022-11-26T06:58:58.593Z,3.20
2022-11-26T07:01:28.043Z,3.33
2022-11-26T07:03:56.239Z,3.55
2022-11-26T07:06:26.482Z,3.30
2022-11-26T07:08:55.894Z,3.22
2022-11-26T07:11:25.261Z,3.38
2022-11-26T07:13:53.368Z,3.15
2022-11-26T07:16:21.483Z,3.28
2022-11-26T07:18:51.713Z,3.20
2022-11-26T07:21:20.924Z,3.38
2022-11-26T07:23:49.487Z,3.38
2022-11-26T07:26:18.533Z,2.90
2022-11-26T07:28:47.247Z,3.28
2022-11-26T07:31:17.757Z,3.53
2022-11-26T07:33:45.832Z,3.22
2022-11-26T07:36:17.275Z,3.80
2022-11-26T07:38:45.745Z,3.58
2022-11-26T07:41:15.089Z,3.33
2022-11-26T07:43:44.231Z,3.58
2022-11-26T07:46:16.013Z,3.35
2022-11-26T07:48:43.971Z,3.22
2022-11-26T07:51:19.396Z,3.35
2022-11-26T07:53:48.046Z,3.50
2022-11-26T07:56:16.272Z,3.20
2022-11-26T07:58:44.207Z,3.67
2022-11-26T08:01:14.773Z,3.38
2022-11-26T08:03:44.522Z,3.13
2022-11-26T08:06:14.504Z,3.00
2022-11-26T08:08:43.895Z,3.20
2022-11-26T08:11:16.109Z,3.17
2022-11-26T08:13:44.721Z,3.35
2022-11-26T08:16:13.638Z,3.15
2022-11-26T08:18:41.839Z,3.20
2022-11-26T08:21:09.857Z,2.80
2022-11-26T08:23:37.813Z,3.22
2022-11-26T08:26:30.972Z,3.25
2022-11-26T08:28:56.704Z,3.28
2022-11-26T08:31:24.926Z,2.97
2022-11-26T08:33:53.022Z,3.08
2022-11-26T08:36:20.966Z,2.90
2022-11-26T08:38:48.882Z,3.13
2022-11-26T08:41:18.070Z,2.80
2022-11-26T08:44:05.834Z,2.92
2022-11-26T08:46:33.947Z,3.00
2022-11-26T08:49:02.077Z,3.08
2022-11-26T08:51:29.934Z,3.13
2022-11-26T08:53:57.967Z,2.67
2022-11-26T08:56:27.436Z,2.33
2022-11-26T08:58:55.306Z,2.50
2022-11-26T09:01:26.361Z,3.05
2022-11-26T09:03:56.536Z,2.97
2022-11-26T09:06:26.295Z,2.55
2022-11-26T09:09:11.990Z,2.45
2022-11-26T09:11:43.841Z,2.83
2022-11-26T09:14:12.759Z,2.90
2022-11-26T09:16:40.851Z,2.90
2022-11-26T09:19:09.891Z,2.78
2022-11-26T09:21:38.197Z,2.30
2022-11-26T09:24:06.601Z,2.70
2022-11-26T09:26:35.630Z,2.95
2022-11-26T09:29:05.237Z,3.05
2022-11-26T09:31:33.978Z,2.95
2022-11-26T09:34:03.101Z,2.67
2022-11-26T09:36:31.329Z,2.90
2022-11-26T09:39:00.731Z,2.90
2022-11-26T09:41:40.925Z,2.47
2022-11-26T09:44:36.663Z,3.25
2022-11-26T09:47:13.113Z,2.55
2022-11-26T09:49:51.115Z,2.90
2022-11-26T09:52:22.145Z,2.90
2022-11-26T09:54:55.651Z,3.17
2022-11-26T09:57:30.938Z,2.53
2022-11-26T10:00:00.357Z,2.80
2022-11-26T10:02:28.315Z,3.33
2022-11-26T10:04:56.365Z,2.35
2022-11-26T10:07:48.015Z,2.83
2022-11-26T10:10:22.567Z,2.67
2022-11-26T10:13:18.558Z,2.55
2022-11-26T10:15:57.988Z,2.78
2022-11-26T10:18:36.813Z,2.75
2022-11-26T10:21:32.529Z,2.28
2022-11-26T10:24:15.197Z,2.90
2022-11-26T10:26:44.517Z,2.53
2022-11-26T10:29:22.564Z,2.45
2022-11-26T10:31:55.871Z,2.30
2022-11-26T10:34:33.393Z,2.50
2022-11-26T10:37:03.931Z,2.63
2022-11-26T10:39:31.965Z,2.42
2022-11-26T10:42:05.254Z,2.33
2022-11-26T10:44:40.089Z,2.45
2022-11-26T10:47:27.807Z,2.63
2022-11-26T10:49:58.402Z,2.13
2022-11-26T10:52:29.229Z,2.53
2022-11-26T10:55:19.725Z,2.33
2022-11-26T10:57:52.342Z,2.35
2022-11-26T11:00:38.857Z,2.38
2022-11-26T11:03:28.572Z,2.20
2022-11-26T11:06:25.494Z,2.63
2022-11-26T11:08:54.163Z,2.47
2022-11-26T11:11:24.972Z,2.80
2022-11-26T11:13:53.503Z,2.10
2022-11-26T11:16:27.562Z,2.25
2022-11-26T11:18:59.134Z,1.83
2022-11-26T11:21:31.222Z,2.30
2022-11-26T11:24:10.998Z,3.35
2022-11-26T11:26:42.782Z,5.82
2022-11-26T11:29:33.924Z,6.10
2022-11-26T11:32:04.426Z,4.85
2022-11-26T11:34:38.245Z,4.93
2022-11-26T11:37:14.817Z,4.65
2022-11-26T11:39:43.670Z,5.30
2022-11-26T11:42:21.996Z,6.70
2022-11-26T11:44:52.535Z,8.05
2022-11-26T11:47:34.052Z,4.78
2022-11-26T11:50:21.134Z,3.63
2022-11-26T11:52:59.827Z,4.15
2022-11-26T11:55:44.007Z,3.20
2022-11-26T11:58:29.833Z,2.95
2022-11-26T12:01:08.227Z,2.70
2022-11-26T12:04:11.928Z,2.35
2022-11-26T12:06:55.842Z,2.45
2022-11-26T12:09:31.843Z,2.80
2022-11-26T12:12:04.710Z,2.00
2022-11-26T12:14:39.498Z,2.17
2022-11-26T12:17:14.420Z,2.22
2022-11-26T12:19:49.649Z,2.10
2022-11-26T12:22:23.072Z,2.50
2022-11-26T12:24:55.389Z,2.60
2022-11-26T12:27:35.528Z,1.95
2022-11-26T12:30:08.701Z,2.20
2022-11-26T12:32:45.981Z,2.53
2022-11-26T12:35:20.729Z,2.30
2022-11-26T12:37:52.722Z,2.00
2022-11-26T12:40:30.399Z,2.10
2022-11-26T12:43:03.308Z,1.80
2022-11-26T12:45:42.228Z,2.10
2022-11-26T12:48:23.462Z,1.98
2022-11-26T12:50:56.522Z,1.98
2022-11-26T12:53:37.012Z,1.67
2022-11-26T12:56:12.775Z,1.60
2022-11-26T12:58:50.932Z,2.20
2022-11-26T13:01:19.142Z,1.58
2022-11-26T13:03:47.166Z,1.70
2022-11-26T13:06:26.623Z,2.00
2022-11-26T13:09:04.497Z,1.80
2022-11-26T13:11:43.350Z,1.60
2022-11-26T13:14:18.693Z,1.77
2022-11-26T13:16:52.832Z,1.58
2022-11-26T13:19:29.999Z,1.83
2022-11-26T13:22:15.822Z,1.88
2022-11-26T13:25:00.615Z,1.80
2022-11-26T13:27:42.580Z,1.70
2022-11-26T13:30:21.182Z,1.65
2022-11-26T13:33:30.927Z,1.80
2022-11-26T13:36:44.235Z,1.63
2022-11-26T13:39:38.128Z,1.92
2022-11-26T13:42:35.847Z,1.65
2022-11-26T13:45:22.991Z,1.48
2022-11-26T13:47:56.589Z,1.52
2022-11-26T13:50:30.037Z,1.63
2022-11-26T13:53:03.366Z,1.40
2022-11-26T13:55:37.327Z,1.60
2022-11-26T13:58:09.310Z,1.83
2022-11-26T14:00:37.409Z,1.92
2022-11-26T14:03:06.162Z,1.70
2022-11-26T14:06:08.318Z,1.95
2022-11-26T14:08:38.629Z,1.80
2022-11-26T14:11:07.146Z,1.60
2022-11-26T14:13:36.617Z,1.65
2022-11-26T14:16:07.692Z,1.65
2022-11-26T14:19:00.511Z,1.80
2022-11-26T14:21:30.688Z,1.70
2022-11-26T14:24:00.918Z,1.80
2022-11-26T14:26:31.771Z,1.73
2022-11-26T14:29:13.380Z,1.75
2022-11-26T14:31:47.630Z,1.48
2022-11-26T14:34:22.862Z,1.40
2022-11-26T14:36:56.403Z,1.50
2022-11-26T14:39:25.323Z,1.58
2022-11-26T14:41:56.081Z,1.70
2022-11-26T14:44:28.441Z,1.48
2022-11-26T14:46:59.955Z,1.50
2022-11-26T14:49:37.136Z,1.58
2022-11-26T14:52:15.839Z,1.95
2022-11-26T14:54:45.777Z,2.03
2022-11-26T14:57:17.073Z,1.60
2022-11-26T14:59:59.467Z,1.60
2022-11-26T15:02:30.272Z,1.45
2022-11-26T15:05:00.280Z,1.70
2022-11-26T15:07:29.723Z,1.50
2022-11-26T15:10:07.461Z,1.90
2022-11-26T15:12:37.371Z,1.40
2022-11-26T15:15:10.954Z,1.50
2022-11-26T15:17:42.947Z,1.67
2022-11-26T15:20:16.957Z,1.38
2022-11-26T15:22:50.968Z,1.63
2022-11-26T15:25:21.593Z,1.55
2022-11-26T15:27:54.918Z,1.42
2022-11-26T15:30:26.761Z,1.80
2022-11-26T15:33:01.973Z,1.85
2022-11-26T15:35:30.977Z,1.75
2022-11-26T15:37:59.132Z,1.50
2022-11-26T15:40:31.541Z,1.40
2022-11-26T15:43:03.475Z,1.50
2022-11-26T15:45:38.609Z,1.30
2022-11-26T15:48:07.811Z,1.55
2022-11-26T15:50:38.451Z,1.63
2022-11-26T15:53:14.939Z,1.60
2022-11-26T15:55:47.506Z,1.70
2022-11-26T15:58:22.692Z,1.50
2022-11-26T16:00:54.989Z,1.70
2022-11-26T16:03:45.186Z,1.40
2022-11-26T16:06:29.121Z,1.40
2022-11-26T16:09:02.320Z,1.50
2022-11-26T16:11:33.890Z,1.83
2022-11-26T16:14:23.583Z,1.40
2022-11-26T16:16:53.786Z,1.45
2022-11-26T16:19:23.029Z,1.50
2022-11-26T16:21:53.569Z,1.40
2022-11-26T16:24:29.771Z,1.52
2022-11-26T16:26:59.467Z,1.20
2022-11-26T16:29:28.493Z,1.50
2022-11-26T16:31:57.827Z,1.50
2022-11-26T16:34:27.790Z,1.63
2022-11-26T16:37:02.450Z,1.67
2022-11-26T16:39:34.940Z,1.77
2022-11-26T16:42:15.024Z,1.33
2022-11-26T16:44:42.954Z,1.83
2022-11-26T16:47:16.910Z,1.98
2022-11-26T16:49:44.846Z,1.30
2022-11-26T16:52:14.407Z,1.50
2022-11-26T16:54:42.598Z,1.58
2022-11-26T16:57:14.862Z,1.83
2022-11-26T16:59:44.291Z,1.65
2022-11-26T17:02:18.263Z,1.63
2022-11-26T17:04:46.234Z,1.60
2022-11-26T17:07:16.644Z,1.58
2022-11-26T17:09:44.605Z,1.60
2022-11-26T17:12:17.345Z,1.60
2022-11-26T17:14:45.546Z,1.73
2022-11-26T17:17:16.908Z,1.90
2022-11-26T17:19:48.549Z,2.05
2022-11-26T17:22:16.461Z,1.90
2022-11-26T17:24:44.298Z,2.05
2022-11-26T17:27:14.572Z,2.00
2022-11-26T17:29:44.415Z,1.98
2022-11-26T17:32:13.903Z,2.22
2022-11-26T17:34:42.426Z,2.20
2022-11-26T17:37:15.890Z,1.98
2022-11-26T17:39:43.967Z,2.03
2022-11-26T17:42:11.866Z,1.73
2022-11-26T17:44:39.725Z,1.90
2022-11-26T17:47:18.123Z,2.13
2022-11-26T17:49:46.384Z,2.40
2022-11-26T17:52:16.245Z,2.55
2022-11-26T17:54:45.352Z,38.22
2022-11-26T17:57:14.577Z,30.15
2022-11-26T17:59:43.163Z,27.40
2022-11-26T18:02:12.029Z,22.42
2022-11-26T18:04:40.034Z,23.48
2022-11-26T18:07:12.075Z,32.85
2022-11-26T18:09:42.654Z,29.17
2022-11-26T18:12:21.661Z,21.73
2022-11-26T18:14:52.666Z,17.08
2022-11-26T18:17:20.675Z,12.43
2022-11-26T18:19:48.876Z,9.52
2022-11-26T18:22:19.115Z,8.75
2022-11-26T18:24:56.433Z,7.38
2022-11-26T18:27:26.533Z,7.18
2022-11-26T18:29:54.940Z,6.10
2022-11-26T18:32:22.977Z,6.10
2022-11-26T18:34:50.961Z,5.85
2022-11-26T18:37:19.526Z,5.50
2022-11-26T18:39:48.730Z,5.25
2022-11-26T18:45:04.919Z,4.55
2022-11-26T18:47:32.981Z,4.90
2022-11-26T18:50:00.916Z,4.60
2022-11-26T18:52:28.822Z,4.60
2022-11-26T18:54:58.162Z,4.63
2022-11-26T18:57:26.099Z,4.10
2022-11-26T18:59:53.975Z,4.00
2022-11-26T19:02:21.951Z,3.58
2022-11-26T19:04:49.939Z,4.03
2022-11-26T19:07:17.849Z,4.38
2022-11-26T19:09:45.758Z,3.88
2022-11-26T19:12:15.182Z,3.90
2022-11-26T19:14:43.158Z,3.80
2022-11-26T19:17:11.271Z,3.58
2022-11-26T19:19:39.782Z,3.92
2022-11-26T19:22:07.918Z,3.15
2022-11-26T19:24:36.028Z,3.20
2022-11-26T19:27:04.027Z,2.88
2022-11-26T19:29:33.515Z,2.90
2022-11-26T19:32:01.430Z,2.90
2022-11-26T19:34:29.399Z,3.00
2022-11-26T19:36:58.255Z,2.70
2022-11-26T19:39:26.332Z,2.55
2022-11-26T19:41:55.323Z,2.63
2022-11-26T19:44:23.376Z,2.50
2022-11-26T19:46:52.769Z,3.00
2022-11-26T19:49:20.723Z,2.60
2022-11-26T19:51:48.748Z,2.67
2022-11-26T19:54:16.748Z,2.35
2022-11-26T19:56:45.940Z,2.13
2022-11-26T19:59:14.016Z,2.30
2022-11-26T20:01:42.590Z,2.45
2022-11-26T20:04:16.795Z,2.30
2022-11-26T20:06:45.470Z,2.20
2022-11-26T20:09:14.983Z,2.17
2022-11-26T20:11:43.127Z,2.20
2022-11-26T20:14:11.085Z,2.40
2022-11-26T20:16:41.174Z,2.25
2022-11-26T20:19:09.948Z,1.70
2022-11-26T20:21:39.412Z,1.73
2022-11-26T20:24:16.133Z,1.80
2022-11-26T20:26:45.156Z,1.90
2022-11-26T20:29:16.995Z,2.00
2022-11-26T20:31:47.043Z,1.70
2022-11-26T20:34:15.268Z,1.58
2022-11-26T20:36:44.774Z,1.40
2022-11-26T20:39:15.902Z,1.60
2022-11-26T20:41:43.905Z,1.38
2022-11-26T20:44:12.951Z,1.50
2022-11-26T20:46:41.472Z,1.08
2022-11-26T20:49:10.948Z,1.38
2022-11-26T20:51:39.089Z,1.20
2022-11-26T20:54:08.522Z,1.30
2022-11-26T20:56:36.423Z,1.30
2022-11-26T20:59:04.708Z,1.30
2022-11-26T21:01:32.738Z,1.27
2022-11-26T21:04:00.751Z,1.33
2022-11-26T21:06:30.328Z,1.38
2022-11-26T21:09:00.626Z,1.42
2022-11-26T21:11:31.400Z,1.40
2022-11-26T21:14:01.579Z,1.30
2022-11-26T21:16:30.232Z,1.50
2022-11-26T21:18:58.530Z,1.60
2022-11-26T21:21:27.588Z,1.40
2022-11-26T21:23:55.940Z,1.30
2022-11-26T21:26:25.624Z,1.58
2022-11-26T21:28:57.085Z,1.20
2022-11-26T21:31:26.016Z,1.42
2022-11-26T21:34:00.742Z,1.70
2022-11-26T21:36:29.943Z,1.38
2022-11-26T21:38:57.963Z,1.30
2022-11-26T21:41:26.605Z,1.30
2022-11-26T21:43:55.870Z,1.20
2022-11-26T21:46:25.996Z,0.98
2022-11-26T21:48:54.444Z,1.10
2022-11-26T21:51:23.151Z,1.20
2022-11-26T21:53:51.690Z,0.98
2022-11-26T21:56:21.603Z,1.08
2022-11-26T21:58:49.796Z,1.10
2022-11-26T22:01:20.898Z,1.50
2022-11-26T22:03:50.600Z,1.33
2022-11-26T22:06:20.414Z,1.08
2022-11-26T22:08:48.661Z,1.25
2022-11-26T22:11:19.007Z,1.20
2022-11-26T22:13:47.139Z,1.17
2022-11-26T22:16:16.750Z,1.42
2022-11-26T22:18:47.376Z,1.20
2022-11-26T22:21:17.255Z,1.35
2022-11-26T22:23:45.338Z,1.42
2022-11-26T22:26:13.506Z,1.77
2022-11-26T22:28:41.608Z,1.50
2022-11-26T22:31:14.869Z,1.65
2022-11-26T22:33:42.896Z,1.85
2022-11-26T22:36:12.800Z,1.65
2022-11-26T22:38:42.424Z,1.67
2022-11-26T22:41:13.314Z,1.80
2022-11-26T22:43:42.673Z,1.50
2022-11-26T22:46:13.397Z,1.75
2022-11-26T22:48:41.764Z,1.77
2022-11-26T22:51:10.296Z,1.70
2022-11-26T22:53:39.564Z,1.65
2022-11-26T22:56:08.054Z,1.73
2022-11-26T22:58:36.479Z,1.83
2022-11-26T23:01:06.986Z,1.52
2022-11-26T23:03:37.489Z,1.90
2022-11-26T23:06:07.650Z,1.70
2022-11-26T23:08:36.478Z,1.85
2022-11-26T23:11:18.687Z,1.90
2022-11-26T23:13:48.002Z,1.58
2022-11-26T23:16:17.143Z,1.70
2022-11-26T23:18:45.860Z,1.70
2022-11-26T23:21:16.227Z,1.80
2022-11-26T23:23:44.761Z,1.77
2022-11-26T23:26:20.550Z,1.63
2022-11-26T23:28:53.174Z,1.63
2022-11-26T23:31:23.108Z,1.80
2022-11-26T23:33:51.446Z,1.63
2022-11-26T23:36:19.635Z,1.70
2022-11-26T23:38:47.946Z,1.80
2022-11-26T23:41:17.807Z,1.75
2022-11-26T23:43:46.219Z,1.60
2022-11-26T23:46:16.989Z,1.40
2022-11-26T23:48:45.812Z,1.90
2022-11-26T23:51:16.396Z,1.40
2022-11-26T23:53:46.002Z,1.85
2022-11-26T23:56:17.890Z,1.52
2022-11-26T23:58:45.797Z,1.50
